sensor_id;sensor_type;location;lat;lon;timestamp;P1;durP1;ratioP1;P2;durP2;ratioP2
57643;SDS011;43474;46.510;6.686;2024-01-16T00:01:42;1.98;;;1.35;;
57643;SDS011;43474;46.510;6.686;2024-01-16T00:04:08;0.88;;;0.63;;
57643;SDS011;43474;46.510;6.686;2024-01-16T00:06:38;1.15;;;0.70;;
57643;SDS011;43474;46.510;6.686;2024-01-16T00:09:04;1.08;;;0.85;;
57643;SDS011;43474;46.510;6.686;2024-01-16T00:11:30;1.13;;;0.95;;
57643;SDS011;43474;46.510;6.686;2024-01-16T00:13:56;0.68;;;0.68;;
57643;SDS011;43474;46.510;6.686;2024-01-16T00:16:22;0.90;;;0.68;;
57643;SDS011;43474;46.510;6.686;2024-01-16T00:18:48;0.43;;;0.38;;
57643;SDS011;43474;46.510;6.686;2024-01-16T00:21:13;1.70;;;0.65;;
57643;SDS011;43474;46.510;6.686;2024-01-16T00:23:39;0.70;;;0.70;;
57643;SDS011;43474;46.510;6.686;2024-01-16T00:26:05;1.35;;;0.75;;
57643;SDS011;43474;46.510;6.686;2024-01-16T00:28:31;1.27;;;0.80;;
57643;SDS011;43474;46.510;6.686;2024-01-16T00:30:57;0.77;;;0.77;;
57643;SDS011;43474;46.510;6.686;2024-01-16T00:33:23;0.52;;;0.50;;
57643;SDS011;43474;46.510;6.686;2024-01-16T00:35:49;0.35;;;0.35;;
57643;SDS011;43474;46.510;6.686;2024-01-16T00:38:15;0.52;;;0.52;;
57643;SDS011;43474;46.510;6.686;2024-01-16T00:40:41;0.50;;;0.50;;
57643;SDS011;43474;46.510;6.686;2024-01-16T00:43:06;1.00;;;0.40;;
57643;SDS011;43474;46.510;6.686;2024-01-16T00:45:32;0.30;;;0.30;;
57643;SDS011;43474;46.510;6.686;2024-01-16T00:47:58;0.98;;;0.30;;
57643;SDS011;43474;46.510;6.686;2024-01-16T00:50:24;0.43;;;0.30;;
57643;SDS011;43474;46.510;6.686;2024-01-16T00:52:49;2.35;;;0.85;;
57643;SDS011;43474;46.510;6.686;2024-01-16T00:55:16;0.45;;;0.40;;
57643;SDS011;43474;46.510;6.686;2024-01-16T00:57:41;0.40;;;0.40;;
57643;SDS011;43474;46.510;6.686;2024-01-16T01:00:07;1.58;;;0.60;;
57643;SDS011;43474;46.510;6.686;2024-01-16T01:02:35;1.30;;;0.70;;
57643;SDS011;43474;46.510;6.686;2024-01-16T01:05:01;2.38;;;0.98;;
57643;SDS011;43474;46.510;6.686;2024-01-16T01:07:26;0.52;;;0.50;;
57643;SDS011;43474;46.510;6.686;2024-01-16T01:09:52;0.22;;;0.22;;
57643;SDS011;43474;46.510;6.686;2024-01-16T01:12:18;1.40;;;0.73;;
57643;SDS011;43474;46.510;6.686;2024-01-16T01:14:44;3.13;;;0.43;;
57643;SDS011;43474;46.510;6.686;2024-01-16T01:17:09;0.40;;;0.40;;
57643;SDS011;43474;46.510;6.686;2024-01-16T01:19:35;0.82;;;0.28;;
57643;SDS011;43474;46.510;6.686;2024-01-16T01:22:01;1.45;;;0.73;;
57643;SDS011;43474;46.510;6.686;2024-01-16T01:24:27;0.40;;;0.40;;
57643;SDS011;43474;46.510;6.686;2024-01-16T01:26:52;0.80;;;0.35;;
57643;SDS011;43474;46.510;6.686;2024-01-16T01:29:18;3.20;;;1.13;;
57643;SDS011;43474;46.510;6.686;2024-01-16T01:31:47;0.95;;;0.63;;
57643;SDS011;43474;46.510;6.686;2024-01-16T01:34:13;1.35;;;0.90;;
57643;SDS011;43474;46.510;6.686;2024-01-16T01:36:39;1.25;;;0.60;;
57643;SDS011;43474;46.510;6.686;2024-01-16T01:39:06;2.75;;;1.27;;
57643;SDS011;43474;46.510;6.686;2024-01-16T01:41:32;0.70;;;0.70;;
57643;SDS011;43474;46.510;6.686;2024-01-16T01:43:59;0.82;;;0.82;;
57643;SDS011;43474;46.510;6.686;2024-01-16T01:46:24;4.18;;;1.45;;
57643;SDS011;43474;46.510;6.686;2024-01-16T01:48:51;1.85;;;1.00;;
57643;SDS011;43474;46.510;6.686;2024-01-16T01:51:19;1.75;;;0.90;;
57643;SDS011;43474;46.510;6.686;2024-01-16T01:53:46;2.67;;;1.52;;
57643;SDS011;43474;46.510;6.686;2024-01-16T01:56:15;0.80;;;0.80;;
57643;SDS011;43474;46.510;6.686;2024-01-16T01:58:44;1.67;;;0.93;;
57643;SDS011;43474;46.510;6.686;2024-01-16T02:01:11;2.50;;;1.05;;
57643;SDS011;43474;46.510;6.686;2024-01-16T02:03:41;0.85;;;0.82;;
57643;SDS011;43474;46.510;6.686;2024-01-16T02:06:08;1.77;;;1.35;;
57643;SDS011;43474;46.510;6.686;2024-01-16T02:08:35;1.85;;;0.90;;
57643;SDS011;43474;46.510;6.686;2024-01-16T02:11:01;2.90;;;1.38;;
57643;SDS011;43474;46.510;6.686;2024-01-16T02:13:27;1.27;;;1.08;;
57643;SDS011;43474;46.510;6.686;2024-01-16T02:15:55;0.93;;;0.90;;
57643;SDS011;43474;46.510;6.686;2024-01-16T02:18:22;0.22;;;0.22;;
57643;SDS011;43474;46.510;6.686;2024-01-16T02:20:49;1.58;;;0.57;;
57643;SDS011;43474;46.510;6.686;2024-01-16T02:23:15;0.70;;;0.70;;
57643;SDS011;43474;46.510;6.686;2024-01-16T02:25:53;1.50;;;0.88;;
57643;SDS011;43474;46.510;6.686;2024-01-16T02:28:19;4.28;;;1.10;;
57643;SDS011;43474;46.510;6.686;2024-01-16T02:30:45;2.13;;;0.60;;
57643;SDS011;43474;46.510;6.686;2024-01-16T02:33:11;1.75;;;1.00;;
57643;SDS011;43474;46.510;6.686;2024-01-16T02:35:37;0.65;;;0.65;;
57643;SDS011;43474;46.510;6.686;2024-01-16T02:38:03;0.43;;;0.40;;
57643;SDS011;43474;46.510;6.686;2024-01-16T02:40:29;2.10;;;0.73;;
57643;SDS011;43474;46.510;6.686;2024-01-16T02:42:56;1.33;;;0.57;;
57643;SDS011;43474;46.510;6.686;2024-01-16T02:45:22;0.95;;;0.68;;
57643;SDS011;43474;46.510;6.686;2024-01-16T02:47:49;0.68;;;0.68;;
57643;SDS011;43474;46.510;6.686;2024-01-16T02:50:15;3.42;;;1.27;;
57643;SDS011;43474;46.510;6.686;2024-01-16T02:52:41;1.60;;;1.02;;
57643;SDS011;43474;46.510;6.686;2024-01-16T02:55:07;0.50;;;0.50;;
57643;SDS011;43474;46.510;6.686;2024-01-16T02:57:33;0.75;;;0.75;;
57643;SDS011;43474;46.510;6.686;2024-01-16T02:59:59;1.73;;;1.05;;
57643;SDS011;43474;46.510;6.686;2024-01-16T03:02:25;0.75;;;0.75;;
57643;SDS011;43474;46.510;6.686;2024-01-16T03:04:50;0.50;;;0.50;;
57643;SDS011;43474;46.510;6.686;2024-01-16T03:07:16;3.17;;;0.95;;
57643;SDS011;43474;46.510;6.686;2024-01-16T03:09:42;1.35;;;1.25;;
57643;SDS011;43474;46.510;6.686;2024-01-16T03:12:07;1.13;;;1.00;;
57643;SDS011;43474;46.510;6.686;2024-01-16T03:14:33;1.02;;;0.73;;
57643;SDS011;43474;46.510;6.686;2024-01-16T03:17:01;1.13;;;0.57;;
57643;SDS011;43474;46.510;6.686;2024-01-16T03:19:28;0.88;;;0.47;;
57643;SDS011;43474;46.510;6.686;2024-01-16T03:21:54;1.15;;;1.15;;
57643;SDS011;43474;46.510;6.686;2024-01-16T03:24:20;0.90;;;0.90;;
57643;SDS011;43474;46.510;6.686;2024-01-16T03:26:46;0.85;;;0.52;;
57643;SDS011;43474;46.510;6.686;2024-01-16T03:29:12;2.47;;;1.15;;
57643;SDS011;43474;46.510;6.686;2024-01-16T03:31:37;0.85;;;0.77;;
57643;SDS011;43474;46.510;6.686;2024-01-16T03:34:03;0.55;;;0.55;;
57643;SDS011;43474;46.510;6.686;2024-01-16T03:36:29;0.70;;;0.70;;
57643;SDS011;43474;46.510;6.686;2024-01-16T03:38:54;1.92;;;0.73;;
57643;SDS011;43474;46.510;6.686;2024-01-16T03:41:20;1.10;;;1.02;;
57643;SDS011;43474;46.510;6.686;2024-01-16T03:43:46;0.47;;;0.47;;
57643;SDS011;43474;46.510;6.686;2024-01-16T03:46:12;0.82;;;0.80;;
57643;SDS011;43474;46.510;6.686;2024-01-16T03:48:38;0.70;;;0.70;;
57643;SDS011;43474;46.510;6.686;2024-01-16T03:51:05;1.50;;;0.63;;
57643;SDS011;43474;46.510;6.686;2024-01-16T03:53:32;0.93;;;0.93;;
57643;SDS011;43474;46.510;6.686;2024-01-16T03:55:58;0.68;;;0.68;;
57643;SDS011;43474;46.510;6.686;2024-01-16T03:58:23;0.50;;;0.50;;
57643;SDS011;43474;46.510;6.686;2024-01-16T04:00:49;3.13;;;1.27;;
57643;SDS011;43474;46.510;6.686;2024-01-16T04:03:16;2.00;;;0.70;;
57643;SDS011;43474;46.510;6.686;2024-01-16T04:05:42;1.23;;;0.80;;
57643;SDS011;43474;46.510;6.686;2024-01-16T04:08:08;1.30;;;1.15;;
57643;SDS011;43474;46.510;6.686;2024-01-16T04:10:34;1.08;;;0.77;;
57643;SDS011;43474;46.510;6.686;2024-01-16T04:13:00;2.53;;;0.77;;
57643;SDS011;43474;46.510;6.686;2024-01-16T04:15:27;7.20;;;1.00;;
57643;SDS011;43474;46.510;6.686;2024-01-16T04:17:53;1.60;;;0.80;;
57643;SDS011;43474;46.510;6.686;2024-01-16T04:20:20;1.50;;;1.05;;
57643;SDS011;43474;46.510;6.686;2024-01-16T04:22:46;1.38;;;1.02;;
57643;SDS011;43474;46.510;6.686;2024-01-16T04:25:12;3.67;;;0.63;;
57643;SDS011;43474;46.510;6.686;2024-01-16T04:27:38;1.15;;;0.85;;
57643;SDS011;43474;46.510;6.686;2024-01-16T04:30:04;1.13;;;0.70;;
57643;SDS011;43474;46.510;6.686;2024-01-16T04:32:30;1.60;;;1.40;;
57643;SDS011;43474;46.510;6.686;2024-01-16T04:34:56;1.20;;;0.75;;
57643;SDS011;43474;46.510;6.686;2024-01-16T04:37:22;0.73;;;0.73;;
57643;SDS011;43474;46.510;6.686;2024-01-16T04:39:48;2.08;;;0.93;;
57643;SDS011;43474;46.510;6.686;2024-01-16T04:42:13;1.08;;;0.88;;
57643;SDS011;43474;46.510;6.686;2024-01-16T04:44:39;3.30;;;2.17;;
57643;SDS011;43474;46.510;6.686;2024-01-16T04:47:05;0.60;;;0.60;;
57643;SDS011;43474;46.510;6.686;2024-01-16T04:49:31;2.13;;;1.17;;
57643;SDS011;43474;46.510;6.686;2024-01-16T04:51:56;4.07;;;1.63;;
57643;SDS011;43474;46.510;6.686;2024-01-16T04:54:22;0.60;;;0.45;;
57643;SDS011;43474;46.510;6.686;2024-01-16T04:56:47;3.40;;;1.15;;
57643;SDS011;43474;46.510;6.686;2024-01-16T04:59:13;1.60;;;0.63;;
57643;SDS011;43474;46.510;6.686;2024-01-16T05:01:39;1.85;;;1.30;;
57643;SDS011;43474;46.510;6.686;2024-01-16T05:04:05;6.68;;;1.33;;
57643;SDS011;43474;46.510;6.686;2024-01-16T05:06:33;1.35;;;1.25;;
57643;SDS011;43474;46.510;6.686;2024-01-16T05:08:59;1.83;;;1.00;;
57643;SDS011;43474;46.510;6.686;2024-01-16T05:11:24;1.33;;;0.88;;
57643;SDS011;43474;46.510;6.686;2024-01-16T05:13:50;0.65;;;0.65;;
57643;SDS011;43474;46.510;6.686;2024-01-16T05:16:23;1.73;;;0.90;;
57643;SDS011;43474;46.510;6.686;2024-01-16T05:18:55;1.33;;;1.13;;
57643;SDS011;43474;46.510;6.686;2024-01-16T05:21:20;1.27;;;1.00;;
57643;SDS011;43474;46.510;6.686;2024-01-16T05:23:46;1.13;;;0.88;;
57643;SDS011;43474;46.510;6.686;2024-01-16T05:26:12;0.82;;;0.80;;
57643;SDS011;43474;46.510;6.686;2024-01-16T05:28:38;3.50;;;1.20;;
57643;SDS011;43474;46.510;6.686;2024-01-16T05:31:05;2.40;;;1.05;;
57643;SDS011;43474;46.510;6.686;2024-01-16T05:33:31;1.90;;;1.20;;
57643;SDS011;43474;46.510;6.686;2024-01-16T05:35:58;1.13;;;0.75;;
57643;SDS011;43474;46.510;6.686;2024-01-16T05:38:23;0.52;;;0.50;;
57643;SDS011;43474;46.510;6.686;2024-01-16T05:40:49;8.85;;;1.40;;
57643;SDS011;43474;46.510;6.686;2024-01-16T05:43:15;4.88;;;1.27;;
57643;SDS011;43474;46.510;6.686;2024-01-16T05:45:41;3.53;;;1.02;;
57643;SDS011;43474;46.510;6.686;2024-01-16T05:48:06;1.08;;;1.08;;
57643;SDS011;43474;46.510;6.686;2024-01-16T05:50:34;1.60;;;1.50;;
57643;SDS011;43474;46.510;6.686;2024-01-16T05:53:01;1.90;;;1.38;;
57643;SDS011;43474;46.510;6.686;2024-01-16T05:55:27;4.00;;;0.73;;
57643;SDS011;43474;46.510;6.686;2024-01-16T05:57:52;1.25;;;0.60;;
57643;SDS011;43474;46.510;6.686;2024-01-16T06:00:19;2.67;;;1.75;;
57643;SDS011;43474;46.510;6.686;2024-01-16T06:02:47;0.43;;;0.43;;
57643;SDS011;43474;46.510;6.686;2024-01-16T06:05:13;1.30;;;1.20;;
57643;SDS011;43474;46.510;6.686;2024-01-16T06:07:39;3.05;;;0.80;;
57643;SDS011;43474;46.510;6.686;2024-01-16T06:10:05;2.05;;;0.95;;
57643;SDS011;43474;46.510;6.686;2024-01-16T06:12:31;3.35;;;1.17;;
57643;SDS011;43474;46.510;6.686;2024-01-16T06:14:58;3.00;;;1.35;;
57643;SDS011;43474;46.510;6.686;2024-01-16T06:17:33;1.55;;;1.33;;
57643;SDS011;43474;46.510;6.686;2024-01-16T06:20:21;2.75;;;1.65;;
57643;SDS011;43474;46.510;6.686;2024-01-16T06:22:52;3.55;;;1.30;;
57643;SDS011;43474;46.510;6.686;2024-01-16T06:25:31;2.30;;;1.20;;
57643;SDS011;43474;46.510;6.686;2024-01-16T06:27:57;0.40;;;0.40;;
57643;SDS011;43474;46.510;6.686;2024-01-16T06:30:28;3.05;;;1.33;;
57643;SDS011;43474;46.510;6.686;2024-01-16T06:33:19;2.73;;;0.67;;
57643;SDS011;43474;46.510;6.686;2024-01-16T06:35:47;2.53;;;0.95;;
57643;SDS011;43474;46.510;6.686;2024-01-16T06:38:13;0.70;;;0.70;;
57643;SDS011;43474;46.510;6.686;2024-01-16T06:40:39;1.13;;;0.65;;
57643;SDS011;43474;46.510;6.686;2024-01-16T06:43:04;1.63;;;0.80;;
57643;SDS011;43474;46.510;6.686;2024-01-16T06:45:31;3.20;;;0.80;;
57643;SDS011;43474;46.510;6.686;2024-01-16T06:47:56;0.68;;;0.63;;
57643;SDS011;43474;46.510;6.686;2024-01-16T06:50:22;0.73;;;0.40;;
57643;SDS011;43474;46.510;6.686;2024-01-16T06:52:48;0.73;;;0.73;;
57643;SDS011;43474;46.510;6.686;2024-01-16T06:55:14;1.17;;;0.50;;
57643;SDS011;43474;46.510;6.686;2024-01-16T06:57:39;0.88;;;0.73;;
57643;SDS011;43474;46.510;6.686;2024-01-16T07:00:05;1.65;;;0.50;;
57643;SDS011;43474;46.510;6.686;2024-01-16T07:02:32;0.88;;;0.73;;
57643;SDS011;43474;46.510;6.686;2024-01-16T07:04:58;0.32;;;0.32;;
57643;SDS011;43474;46.510;6.686;2024-01-16T07:07:25;0.80;;;0.35;;
57643;SDS011;43474;46.510;6.686;2024-01-16T07:09:51;1.63;;;0.90;;
57643;SDS011;43474;46.510;6.686;2024-01-16T07:12:16;1.08;;;0.90;;
57643;SDS011;43474;46.510;6.686;2024-01-16T07:14:42;1.42;;;1.05;;
57643;SDS011;43474;46.510;6.686;2024-01-16T07:17:07;0.82;;;0.45;;
57643;SDS011;43474;46.510;6.686;2024-01-16T07:19:33;1.15;;;0.63;;
57643;SDS011;43474;46.510;6.686;2024-01-16T07:21:59;0.88;;;0.68;;
57643;SDS011;43474;46.510;6.686;2024-01-16T07:24:24;0.80;;;0.65;;
57643;SDS011;43474;46.510;6.686;2024-01-16T07:26:50;1.17;;;1.15;;
57643;SDS011;43474;46.510;6.686;2024-01-16T07:29:16;1.00;;;0.50;;
57643;SDS011;43474;46.510;6.686;2024-01-16T07:31:41;0.70;;;0.70;;
57643;SDS011;43474;46.510;6.686;2024-01-16T07:34:07;0.70;;;0.50;;
57643;SDS011;43474;46.510;6.686;2024-01-16T07:36:33;1.42;;;0.52;;
57643;SDS011;43474;46.510;6.686;2024-01-16T07:38:58;2.25;;;1.20;;
57643;SDS011;43474;46.510;6.686;2024-01-16T07:41:24;2.13;;;1.48;;
57643;SDS011;43474;46.510;6.686;2024-01-16T07:43:50;1.40;;;1.30;;
57643;SDS011;43474;46.510;6.686;2024-01-16T07:46:15;1.92;;;0.90;;
57643;SDS011;43474;46.510;6.686;2024-01-16T07:48:41;3.42;;;1.63;;
57643;SDS011;43474;46.510;6.686;2024-01-16T07:51:07;1.38;;;1.27;;
57643;SDS011;43474;46.510;6.686;2024-01-16T07:53:33;5.55;;;1.17;;
57643;SDS011;43474;46.510;6.686;2024-01-16T07:55:59;1.05;;;0.95;;
57643;SDS011;43474;46.510;6.686;2024-01-16T07:58:24;2.17;;;0.95;;
57643;SDS011;43474;46.510;6.686;2024-01-16T08:00:50;1.95;;;1.15;;
57643;SDS011;43474;46.510;6.686;2024-01-16T08:03:16;2.45;;;1.23;;
57643;SDS011;43474;46.510;6.686;2024-01-16T08:05:42;0.85;;;0.80;;
57643;SDS011;43474;46.510;6.686;2024-01-16T08:08:08;1.63;;;1.17;;
57643;SDS011;43474;46.510;6.686;2024-01-16T08:10:35;1.33;;;0.85;;
57643;SDS011;43474;46.510;6.686;2024-01-16T08:13:01;1.50;;;1.10;;
57643;SDS011;43474;46.510;6.686;2024-01-16T08:15:26;1.38;;;0.82;;
57643;SDS011;43474;46.510;6.686;2024-01-16T08:17:52;1.58;;;0.90;;
57643;SDS011;43474;46.510;6.686;2024-01-16T08:20:18;0.98;;;0.88;;
57643;SDS011;43474;46.510;6.686;2024-01-16T08:22:46;2.47;;;1.30;;
57643;SDS011;43474;46.510;6.686;2024-01-16T08:25:12;3.78;;;1.10;;
57643;SDS011;43474;46.510;6.686;2024-01-16T08:27:39;1.88;;;1.27;;
57643;SDS011;43474;46.510;6.686;2024-01-16T08:30:05;1.88;;;0.90;;
57643;SDS011;43474;46.510;6.686;2024-01-16T08:32:32;1.23;;;1.02;;
57643;SDS011;43474;46.510;6.686;2024-01-16T08:34:58;4.43;;;1.15;;
57643;SDS011;43474;46.510;6.686;2024-01-16T08:37:24;4.75;;;0.75;;
57643;SDS011;43474;46.510;6.686;2024-01-16T08:39:50;1.10;;;0.88;;
57643;SDS011;43474;46.510;6.686;2024-01-16T08:42:16;1.08;;;0.75;;
57643;SDS011;43474;46.510;6.686;2024-01-16T08:44:43;2.47;;;1.17;;
57643;SDS011;43474;46.510;6.686;2024-01-16T08:47:09;1.60;;;1.15;;
57643;SDS011;43474;46.510;6.686;2024-01-16T08:49:35;0.82;;;0.60;;
57643;SDS011;43474;46.510;6.686;2024-01-16T08:52:01;1.33;;;1.05;;
57643;SDS011;43474;46.510;6.686;2024-01-16T08:54:28;0.75;;;0.75;;
57643;SDS011;43474;46.510;6.686;2024-01-16T08:56:54;0.85;;;0.85;;
57643;SDS011;43474;46.510;6.686;2024-01-16T08:59:37;1.77;;;1.52;;
57643;SDS011;43474;46.510;6.686;2024-01-16T09:02:04;2.47;;;1.40;;
57643;SDS011;43474;46.510;6.686;2024-01-16T09:04:33;2.10;;;1.15;;
57643;SDS011;43474;46.510;6.686;2024-01-16T09:07:01;0.98;;;0.70;;
57643;SDS011;43474;46.510;6.686;2024-01-16T09:09:35;6.63;;;1.30;;
57643;SDS011;43474;46.510;6.686;2024-01-16T09:12:08;1.17;;;1.00;;
57643;SDS011;43474;46.510;6.686;2024-01-16T09:14:35;2.92;;;1.33;;
57643;SDS011;43474;46.510;6.686;2024-01-16T09:17:27;0.93;;;0.60;;
57643;SDS011;43474;46.510;6.686;2024-01-16T09:19:52;1.20;;;0.90;;
57643;SDS011;43474;46.510;6.686;2024-01-16T09:22:18;4.07;;;1.33;;
57643;SDS011;43474;46.510;6.686;2024-01-16T09:24:47;1.02;;;0.57;;
57643;SDS011;43474;46.510;6.686;2024-01-16T09:27:13;1.48;;;0.82;;
57643;SDS011;43474;46.510;6.686;2024-01-16T09:29:42;1.88;;;1.15;;
57643;SDS011;43474;46.510;6.686;2024-01-16T09:32:16;1.10;;;0.65;;
57643;SDS011;43474;46.510;6.686;2024-01-16T09:35:01;1.63;;;1.33;;
57643;SDS011;43474;46.510;6.686;2024-01-16T09:37:35;4.25;;;1.88;;
57643;SDS011;43474;46.510;6.686;2024-01-16T09:40:01;2.38;;;1.35;;
57643;SDS011;43474;46.510;6.686;2024-01-16T09:42:27;4.70;;;1.90;;
57643;SDS011;43474;46.510;6.686;2024-01-16T09:44:55;2.28;;;1.65;;
57643;SDS011;43474;46.510;6.686;2024-01-16T09:47:33;5.93;;;1.40;;
57643;SDS011;43474;46.510;6.686;2024-01-16T09:49:59;2.75;;;1.38;;
57643;SDS011;43474;46.510;6.686;2024-01-16T09:52:30;3.50;;;1.70;;
57643;SDS011;43474;46.510;6.686;2024-01-16T09:54:58;2.40;;;1.40;;
57643;SDS011;43474;46.510;6.686;2024-01-16T09:57:28;3.42;;;1.38;;
57643;SDS011;43474;46.510;6.686;2024-01-16T10:00:07;2.63;;;1.30;;
57643;SDS011;43474;46.510;6.686;2024-01-16T10:02:40;1.90;;;1.15;;
57643;SDS011;43474;46.510;6.686;2024-01-16T10:07:38;0.73;;;0.73;;
57643;SDS011;43474;46.510;6.686;2024-01-16T10:10:06;1.30;;;1.20;;
57643;SDS011;43474;46.510;6.686;2024-01-16T10:12:33;5.70;;;1.95;;
57643;SDS011;43474;46.510;6.686;2024-01-16T10:14:59;3.70;;;1.98;;
57643;SDS011;43474;46.510;6.686;2024-01-16T10:17:41;4.03;;;2.03;;
57643;SDS011;43474;46.510;6.686;2024-01-16T10:20:10;3.80;;;1.58;;
57643;SDS011;43474;46.510;6.686;2024-01-16T10:22:52;2.85;;;1.98;;
57643;SDS011;43474;46.510;6.686;2024-01-16T10:25:19;2.70;;;1.83;;
57643;SDS011;43474;46.510;6.686;2024-01-16T10:27:46;4.28;;;1.98;;
57643;SDS011;43474;46.510;6.686;2024-01-16T10:30:12;3.53;;;2.00;;
57643;SDS011;43474;46.510;6.686;2024-01-16T10:32:42;2.83;;;1.75;;
57643;SDS011;43474;46.510;6.686;2024-01-16T10:35:11;2.78;;;1.58;;
57643;SDS011;43474;46.510;6.686;2024-01-16T10:37:45;3.55;;;1.38;;
57643;SDS011;43474;46.510;6.686;2024-01-16T10:40:18;4.90;;;2.58;;
57643;SDS011;43474;46.510;6.686;2024-01-16T10:42:45;5.38;;;1.73;;
57643;SDS011;43474;46.510;6.686;2024-01-16T10:45:18;3.95;;;2.08;;
57643;SDS011;43474;46.510;6.686;2024-01-16T10:47:46;4.10;;;2.38;;
57643;SDS011;43474;46.510;6.686;2024-01-16T10:50:14;5.40;;;2.30;;
57643;SDS011;43474;46.510;6.686;2024-01-16T10:53:05;3.03;;;1.95;;
57643;SDS011;43474;46.510;6.686;2024-01-16T10:55:33;3.45;;;1.95;;
57643;SDS011;43474;46.510;6.686;2024-01-16T10:58:09;3.08;;;2.08;;
57643;SDS011;43474;46.510;6.686;2024-01-16T11:00:37;4.03;;;2.33;;
57643;SDS011;43474;46.510;6.686;2024-01-16T11:03:09;3.60;;;2.03;;
57643;SDS011;43474;46.510;6.686;2024-01-16T11:05:44;2.80;;;1.50;;
57643;SDS011;43474;46.510;6.686;2024-01-16T11:08:10;8.45;;;2.20;;
57643;SDS011;43474;46.510;6.686;2024-01-16T11:10:39;3.05;;;1.70;;
57643;SDS011;43474;46.510;6.686;2024-01-16T11:13:05;3.17;;;1.83;;
57643;SDS011;43474;46.510;6.686;2024-01-16T11:15:32;2.38;;;1.63;;
57643;SDS011;43474;46.510;6.686;2024-01-16T11:18:04;3.05;;;1.77;;
57643;SDS011;43474;46.510;6.686;2024-01-16T11:20:32;2.58;;;1.52;;
57643;SDS011;43474;46.510;6.686;2024-01-16T11:23:12;2.90;;;1.45;;
57643;SDS011;43474;46.510;6.686;2024-01-16T11:25:39;3.33;;;1.85;;
57643;SDS011;43474;46.510;6.686;2024-01-16T11:28:14;4.32;;;1.73;;
57643;SDS011;43474;46.510;6.686;2024-01-16T11:30:42;2.13;;;1.27;;
57643;SDS011;43474;46.510;6.686;2024-01-16T11:36:02;2.13;;;1.10;;
57643;SDS011;43474;46.510;6.686;2024-01-16T11:38:31;2.40;;;1.45;;
57643;SDS011;43474;46.510;6.686;2024-01-16T11:41:03;3.53;;;0.98;;
57643;SDS011;43474;46.510;6.686;2024-01-16T11:49:18;2.60;;;1.52;;
57643;SDS011;43474;46.510;6.686;2024-01-16T11:51:46;1.30;;;0.90;;
57643;SDS011;43474;46.510;6.686;2024-01-16T11:54:47;3.25;;;1.58;;
57643;SDS011;43474;46.510;6.686;2024-01-16T12:00:18;1.77;;;1.02;;
57643;SDS011;43474;46.510;6.686;2024-01-16T12:02:53;1.77;;;0.93;;
57643;SDS011;43474;46.510;6.686;2024-01-16T12:05:31;2.45;;;1.33;;
57643;SDS011;43474;46.510;6.686;2024-01-16T12:10:31;1.48;;;1.00;;
57643;SDS011;43474;46.510;6.686;2024-01-16T12:13:02;4.55;;;1.58;;
57643;SDS011;43474;46.510;6.686;2024-01-16T12:15:41;2.30;;;1.23;;
57643;SDS011;43474;46.510;6.686;2024-01-16T12:18:17;2.85;;;1.10;;
57643;SDS011;43474;46.510;6.686;2024-01-16T12:20:44;2.88;;;1.25;;
57643;SDS011;43474;46.510;6.686;2024-01-16T12:23:13;2.95;;;1.92;;
57643;SDS011;43474;46.510;6.686;2024-01-16T12:25:39;2.22;;;1.77;;
57643;SDS011;43474;46.510;6.686;2024-01-16T12:28:05;6.20;;;1.25;;
57643;SDS011;43474;46.510;6.686;2024-01-16T12:30:33;1.98;;;1.40;;
57643;SDS011;43474;46.510;6.686;2024-01-16T12:33:03;2.33;;;1.40;;
57643;SDS011;43474;46.510;6.686;2024-01-16T12:35:42;2.33;;;1.48;;
57643;SDS011;43474;46.510;6.686;2024-01-16T12:38:11;4.05;;;1.40;;
57643;SDS011;43474;46.510;6.686;2024-01-16T12:40:46;3.72;;;1.90;;
57643;SDS011;43474;46.510;6.686;2024-01-16T12:43:15;6.28;;;1.65;;
57643;SDS011;43474;46.510;6.686;2024-01-16T12:45:42;2.00;;;1.17;;
57643;SDS011;43474;46.510;6.686;2024-01-16T12:48:10;2.53;;;1.42;;
57643;SDS011;43474;46.510;6.686;2024-01-16T12:50:36;3.10;;;1.52;;
57643;SDS011;43474;46.510;6.686;2024-01-16T12:55:37;2.60;;;1.30;;
57643;SDS011;43474;46.510;6.686;2024-01-16T12:58:17;4.17;;;1.97;;
57643;SDS011;43474;46.510;6.686;2024-01-16T13:00:50;2.60;;;1.25;;
57643;SDS011;43474;46.510;6.686;2024-01-16T13:03:20;4.00;;;1.85;;
57643;SDS011;43474;46.510;6.686;2024-01-16T13:05:54;2.88;;;1.30;;
57643;SDS011;43474;46.510;6.686;2024-01-16T13:08:21;3.60;;;1.98;;
57643;SDS011;43474;46.510;6.686;2024-01-16T13:13:29;3.55;;;2.22;;
57643;SDS011;43474;46.510;6.686;2024-01-16T13:15:55;4.00;;;2.08;;
57643;SDS011;43474;46.510;6.686;2024-01-16T13:18:25;2.90;;;1.70;;
57643;SDS011;43474;46.510;6.686;2024-01-16T13:20:58;4.82;;;2.03;;
57643;SDS011;43474;46.510;6.686;2024-01-16T13:23:26;3.25;;;2.00;;
57643;SDS011;43474;46.510;6.686;2024-01-16T13:25:53;3.85;;;2.03;;
57643;SDS011;43474;46.510;6.686;2024-01-16T13:28:27;3.70;;;2.35;;
57643;SDS011;43474;46.510;6.686;2024-01-16T13:30:54;4.22;;;2.25;;
57643;SDS011;43474;46.510;6.686;2024-01-16T13:33:22;1.95;;;1.65;;
57643;SDS011;43474;46.510;6.686;2024-01-16T13:35:52;3.80;;;2.10;;
57643;SDS011;43474;46.510;6.686;2024-01-16T13:38:19;3.35;;;1.90;;
57643;SDS011;43474;46.510;6.686;2024-01-16T13:40:45;3.67;;;2.47;;
57643;SDS011;43474;46.510;6.686;2024-01-16T13:43:11;4.78;;;1.75;;
57643;SDS011;43474;46.510;6.686;2024-01-16T13:45:37;2.30;;;1.55;;
57643;SDS011;43474;46.510;6.686;2024-01-16T13:48:03;3.60;;;2.15;;
57643;SDS011;43474;46.510;6.686;2024-01-16T13:50:31;4.65;;;2.63;;
57643;SDS011;43474;46.510;6.686;2024-01-16T13:52:58;4.35;;;2.67;;
57643;SDS011;43474;46.510;6.686;2024-01-16T13:55:25;2.83;;;2.03;;
57643;SDS011;43474;46.510;6.686;2024-01-16T13:57:50;4.95;;;2.67;;
57643;SDS011;43474;46.510;6.686;2024-01-16T14:00:16;5.40;;;2.90;;
57643;SDS011;43474;46.510;6.686;2024-01-16T14:02:44;6.18;;;2.78;;
57643;SDS011;43474;46.510;6.686;2024-01-16T14:05:14;6.35;;;3.03;;
57643;SDS011;43474;46.510;6.686;2024-01-16T14:07:41;6.55;;;2.97;;
57643;SDS011;43474;46.510;6.686;2024-01-16T14:10:08;4.05;;;2.38;;
57643;SDS011;43474;46.510;6.686;2024-01-16T14:12:38;5.85;;;2.53;;
57643;SDS011;43474;46.510;6.686;2024-01-16T14:15:04;3.20;;;2.30;;
57643;SDS011;43474;46.510;6.686;2024-01-16T14:17:34;4.70;;;2.60;;
57643;SDS011;43474;46.510;6.686;2024-01-16T14:20:01;3.45;;;2.17;;
57643;SDS011;43474;46.510;6.686;2024-01-16T14:22:27;7.20;;;2.35;;
57643;SDS011;43474;46.510;6.686;2024-01-16T14:24:53;7.57;;;3.80;;
57643;SDS011;43474;46.510;6.686;2024-01-16T14:27:19;5.18;;;2.53;;
57643;SDS011;43474;46.510;6.686;2024-01-16T14:29:44;7.97;;;2.47;;
57643;SDS011;43474;46.510;6.686;2024-01-16T14:32:10;4.38;;;2.70;;
57643;SDS011;43474;46.510;6.686;2024-01-16T14:34:36;4.93;;;3.08;;
57643;SDS011;43474;46.510;6.686;2024-01-16T14:37:02;5.50;;;2.45;;
57643;SDS011;43474;46.510;6.686;2024-01-16T14:39:28;6.90;;;2.95;;
57643;SDS011;43474;46.510;6.686;2024-01-16T14:41:56;6.75;;;2.38;;
57643;SDS011;43474;46.510;6.686;2024-01-16T14:44:23;3.95;;;2.25;;
57643;SDS011;43474;46.510;6.686;2024-01-16T14:46:49;6.95;;;2.97;;
57643;SDS011;43474;46.510;6.686;2024-01-16T14:49:15;4.35;;;2.92;;
57643;SDS011;43474;46.510;6.686;2024-01-16T14:51:41;5.65;;;2.80;;
57643;SDS011;43474;46.510;6.686;2024-01-16T14:54:07;4.95;;;3.05;;
57643;SDS011;43474;46.510;6.686;2024-01-16T14:56:33;4.25;;;2.80;;
57643;SDS011;43474;46.510;6.686;2024-01-16T14:58:59;3.80;;;2.40;;
57643;SDS011;43474;46.510;6.686;2024-01-16T15:01:24;6.88;;;3.42;;
57643;SDS011;43474;46.510;6.686;2024-01-16T15:03:50;4.00;;;2.70;;
57643;SDS011;43474;46.510;6.686;2024-01-16T15:06:16;5.38;;;2.38;;
57643;SDS011;43474;46.510;6.686;2024-01-16T15:08:42;6.15;;;2.63;;
57643;SDS011;43474;46.510;6.686;2024-01-16T15:11:08;4.72;;;2.13;;
57643;SDS011;43474;46.510;6.686;2024-01-16T15:13:35;5.05;;;3.22;;